createdAt,value
2019-01-17T00:02:30.482Z,6.51
2019-01-17T00:05:01.395Z,6.47
2019-01-17T00:07:38.078Z,6.40
2019-01-17T00:10:10.760Z,6.45
2019-01-17T00:12:44.620Z,6.53
2019-01-17T00:15:18.396Z,6.62
2019-01-17T00:17:52.372Z,6.49
2019-01-17T00:20:29.294Z,6.54
2019-01-17T00:23:06.482Z,6.50
2019-01-17T00:25:37.404Z,6.58
2019-01-17T00:28:23.393Z,6.63
2019-01-17T00:31:02.847Z,6.73
2019-01-17T00:33:45.866Z,6.74
2019-01-17T00:36:31.853Z,6.86
2019-01-17T00:39:08.540Z,6.88
2019-01-17T00:41:57.664Z,6.77
2019-01-17T00:44:28.591Z,6.66
2019-01-17T00:47:15.865Z,6.60
2019-01-17T00:50:04.794Z,6.74
2019-01-17T00:52:53.758Z,6.76
2019-01-17T00:55:33.484Z,6.83
2019-01-17T00:58:16.194Z,6.99
2019-01-17T01:00:50.344Z,6.89
2019-01-17T01:03:24.137Z,6.97
2019-01-17T01:06:01.001Z,6.95
2019-01-17T01:08:40.890Z,6.91
2019-01-17T01:11:14.337Z,6.91
2019-01-17T01:13:45.254Z,6.85
2019-01-17T01:16:25.514Z,6.82
2019-01-17T01:19:12.841Z,6.84
2019-01-17T01:21:55.720Z,6.71
2019-01-17T01:24:42.845Z,6.68
2019-01-17T01:27:29.052Z,6.85
2019-01-17T01:29:59.966Z,6.86
2019-01-17T01:32:30.911Z,6.82
2019-01-17T01:35:01.826Z,6.73
2019-01-17T01:37:54.542Z,6.87
2019-01-17T01:40:28.393Z,6.83
2019-01-17T01:43:05.350Z,6.83
2019-01-17T01:45:39.216Z,6.83
2019-01-17T01:48:25.174Z,6.67
2019-01-17T01:50:56.214Z,6.67
2019-01-17T01:53:25.518Z,6.74
2019-01-17T01:55:54.790Z,6.73
2019-01-17T01:58:24.089Z,6.79
2019-01-17T02:00:53.426Z,6.74
2019-01-17T02:03:22.728Z,6.75
2019-01-17T02:05:52.006Z,6.82
2019-01-17T02:08:21.307Z,6.86
2019-01-17T02:10:50.593Z,6.78
2019-01-17T02:13:19.890Z,6.85
2019-01-17T02:15:49.184Z,6.97
2019-01-17T02:18:18.793Z,6.97
2019-01-17T02:20:48.161Z,6.88
2019-01-17T02:23:18.994Z,6.82
2019-01-17T02:25:48.300Z,6.82
2019-01-17T02:28:17.807Z,6.81
2019-01-17T02:30:47.107Z,6.92
2019-01-17T02:33:16.409Z,6.92
2019-01-17T02:35:45.945Z,6.87
2019-01-17T02:38:15.256Z,6.87
2019-01-17T02:40:44.522Z,6.71
2019-01-17T02:43:13.895Z,6.70
2019-01-17T02:45:43.166Z,6.73
2019-01-17T02:48:12.479Z,6.82
2019-01-17T02:50:41.765Z,6.72
2019-01-17T02:53:11.047Z,6.72
2019-01-17T02:55:40.354Z,6.82
2019-01-17T02:58:09.633Z,6.79
2019-01-17T03:00:38.932Z,6.72
2019-01-17T03:03:08.203Z,6.84
2019-01-17T03:05:37.504Z,6.85
2019-01-17T03:08:07.392Z,6.74
2019-01-17T03:10:36.689Z,6.74
2019-01-17T03:13:06.047Z,6.79
2019-01-17T03:15:35.418Z,6.87
2019-01-17T03:18:04.834Z,6.87
2019-01-17T03:20:34.153Z,6.75
2019-01-17T03:23:03.423Z,6.65
2019-01-17T03:25:32.886Z,6.70
2019-01-17T03:28:02.246Z,6.76
2019-01-17T03:30:31.571Z,6.71
2019-01-17T03:33:00.916Z,6.71
2019-01-17T03:35:30.199Z,6.67
2019-01-17T03:37:59.478Z,6.65
2019-01-17T03:40:28.793Z,6.69
2019-01-17T03:42:58.130Z,6.69
2019-01-17T03:45:27.433Z,6.74
2019-01-17T03:47:56.703Z,6.72
2019-01-17T03:50:26.078Z,6.74
2019-01-17T03:52:55.345Z,6.75
2019-01-17T03:55:25.532Z,6.71
2019-01-17T03:57:54.918Z,6.71
2019-01-17T04:00:24.256Z,6.68
2019-01-17T04:02:53.950Z,6.77
2019-01-17T04:05:23.300Z,6.77
2019-01-17T04:07:52.598Z,6.68
2019-01-17T04:10:22.234Z,6.63
2019-01-17T04:12:51.538Z,6.67
2019-01-17T04:15:20.838Z,6.70
2019-01-17T04:17:50.204Z,6.72
2019-01-17T04:20:19.545Z,6.67
2019-01-17T04:22:48.846Z,6.67
2019-01-17T04:25:18.348Z,6.66
2019-01-17T04:27:47.637Z,6.71
2019-01-17T04:30:18.147Z,6.68
2019-01-17T04:32:47.576Z,6.71
2019-01-17T04:35:16.926Z,6.73
2019-01-17T04:37:46.447Z,6.76
2019-01-17T04:40:15.823Z,6.67
2019-01-17T04:42:45.123Z,6.69
2019-01-17T04:45:15.153Z,6.71
2019-01-17T04:47:45.013Z,6.70
2019-01-17T04:50:15.259Z,6.65
2019-01-17T04:52:45.026Z,6.64
2019-01-17T04:55:15.073Z,6.64
2019-01-17T04:57:44.438Z,6.72
2019-01-17T05:00:16.911Z,6.75
2019-01-17T05:02:46.245Z,6.70
2019-01-17T05:05:15.618Z,6.71
2019-01-17T05:07:44.894Z,6.60
2019-01-17T05:10:16.432Z,6.64
2019-01-17T05:12:45.711Z,6.70
2019-01-17T05:15:15.268Z,6.64
2019-01-17T05:17:44.768Z,6.68
2019-01-17T05:20:15.833Z,6.60
2019-01-17T05:22:45.730Z,6.74
2019-01-17T05:25:15.167Z,6.63
2019-01-17T05:27:44.908Z,6.64
2019-01-17T05:30:18.770Z,6.67
2019-01-17T05:32:48.054Z,6.47
2019-01-17T05:35:17.356Z,6.50
2019-01-17T05:37:46.692Z,6.52
2019-01-17T05:40:18.435Z,6.46
2019-01-17T05:42:47.869Z,6.37
2019-01-17T05:45:17.283Z,6.51
2019-01-17T05:47:46.825Z,6.53
2019-01-17T05:50:18.061Z,6.54
2019-01-17T05:52:47.357Z,6.58
2019-01-17T05:55:19.998Z,6.61
2019-01-17T05:57:47.633Z,6.48
2019-01-17T06:00:19.446Z,6.51
2019-01-17T06:02:48.811Z,6.55
2019-01-17T06:05:18.838Z,6.58
2019-01-17T06:07:48.117Z,6.62
2019-01-17T06:10:17.480Z,6.40
2019-01-17T06:12:46.793Z,6.53
2019-01-17T06:15:17.734Z,6.53
2019-01-17T06:17:47.050Z,6.40
2019-01-17T06:20:17.700Z,6.49
2019-01-17T06:22:47.066Z,6.54
2019-01-17T06:25:16.348Z,6.39
2019-01-17T06:27:45.643Z,6.38
2019-01-17T06:30:16.084Z,6.50
2019-01-17T06:32:45.670Z,6.60
2019-01-17T06:35:15.280Z,6.57
2019-01-17T06:37:44.623Z,6.56
2019-01-17T06:40:26.176Z,6.60
2019-01-17T06:42:55.542Z,6.48
2019-01-17T06:45:24.827Z,6.61
2019-01-17T06:47:54.128Z,6.83
2019-01-17T06:50:23.509Z,6.99
2019-01-17T06:52:52.854Z,6.99
2019-01-17T06:55:22.153Z,6.97
2019-01-17T06:57:51.431Z,6.91
2019-01-17T07:00:20.737Z,6.67
2019-01-17T07:02:50.012Z,6.58
2019-01-17T07:05:19.400Z,6.58
2019-01-17T07:07:48.800Z,6.48
2019-01-17T07:10:18.635Z,6.71
2019-01-17T07:12:47.909Z,6.79
2019-01-17T07:15:17.209Z,7.17
2019-01-17T07:17:46.513Z,7.17
2019-01-17T07:20:16.830Z,6.70
2019-01-17T07:22:46.644Z,6.83
2019-01-17T07:25:15.977Z,6.88
2019-01-17T07:27:45.248Z,6.95
2019-01-17T07:30:17.542Z,6.46
2019-01-17T07:32:47.015Z,6.46
2019-01-17T07:35:16.962Z,6.24
2019-01-17T07:37:46.597Z,6.37
2019-01-17T07:40:16.822Z,6.46
2019-01-17T07:42:46.094Z,6.57
2019-01-17T07:45:21.770Z,6.70
2019-01-17T07:47:51.247Z,6.59
2019-01-17T07:50:20.590Z,6.58
2019-01-17T07:52:50.427Z,6.56
2019-01-17T07:55:19.704Z,6.68
2019-01-17T07:57:49.247Z,6.56
2019-01-17T08:00:20.859Z,6.41
2019-01-17T08:02:50.154Z,6.45
2019-01-17T08:05:19.650Z,6.49
2019-01-17T08:07:49.148Z,6.61
2019-01-17T08:10:20.259Z,6.41
2019-01-17T08:12:50.297Z,6.31
2019-01-17T08:15:19.654Z,6.45
2019-01-17T08:17:49.189Z,6.69
2019-01-17T08:20:25.210Z,6.92
2019-01-17T08:22:54.500Z,6.69
2019-01-17T08:25:25.039Z,6.97
2019-01-17T08:27:54.337Z,6.91
2019-01-17T08:30:25.994Z,6.98
2019-01-17T08:32:55.433Z,7.19
2019-01-17T08:35:25.124Z,6.94
2019-01-17T08:37:56.227Z,7.34
2019-01-17T08:40:28.754Z,7.43
2019-01-17T08:42:59.576Z,7.46
2019-01-17T08:45:30.552Z,7.29
2019-01-17T08:48:01.431Z,7.30
2019-01-17T08:50:31.837Z,7.30
2019-01-17T08:53:02.851Z,7.68
2019-01-17T08:55:33.308Z,7.57
2019-01-17T08:58:03.638Z,7.57
2019-01-17T09:00:34.012Z,7.94
2019-01-17T09:03:04.760Z,8.87
2019-01-17T09:05:35.198Z,9.01
2019-01-17T09:08:06.275Z,8.13
2019-01-17T09:10:36.776Z,8.11
2019-01-17T09:13:07.232Z,7.55
2019-01-17T09:15:38.224Z,7.50
2019-01-17T09:18:08.687Z,7.21
2019-01-17T09:20:39.433Z,7.22
2019-01-17T09:23:10.089Z,7.09
2019-01-17T09:25:40.569Z,7.09
2019-01-17T09:28:11.047Z,7.01
2019-01-17T09:30:41.562Z,6.93
2019-01-17T09:33:12.038Z,6.91
2019-01-17T09:35:43.495Z,6.88
2019-01-17T09:38:14.147Z,6.87
2019-01-17T09:40:45.088Z,6.88
2019-01-17T09:43:15.528Z,6.86
2019-01-17T09:45:46.214Z,6.86
2019-01-17T09:48:17.084Z,6.79
2019-01-17T09:50:47.752Z,6.79
2019-01-17T09:53:18.552Z,6.79
2019-01-17T09:55:49.118Z,6.74
2019-01-17T09:58:19.716Z,6.81
2019-01-17T10:00:50.126Z,6.77
2019-01-17T10:03:20.471Z,6.83
2019-01-17T10:05:51.314Z,6.84
2019-01-17T10:08:21.632Z,6.85
2019-01-17T10:10:52.143Z,7.13
2019-01-17T10:13:22.813Z,7.14
2019-01-17T10:15:59.070Z,7.14
2019-01-17T10:18:52.308Z,7.29
2019-01-17T10:21:27.663Z,7.20
2019-01-17T10:24:10.316Z,7.18
2019-01-17T10:26:49.373Z,7.22
2019-01-17T10:29:37.848Z,7.33
2019-01-17T10:32:13.540Z,7.33
2019-01-17T10:35:03.736Z,7.33
2019-01-17T10:37:48.767Z,7.39
2019-01-17T10:40:38.340Z,7.39
2019-01-17T10:43:26.823Z,7.66
2019-01-17T10:46:08.467Z,7.66
2019-01-17T10:48:59.746Z,7.96
2019-01-17T10:51:45.076Z,7.96
2019-01-17T10:54:36.836Z,8.08
2019-01-17T10:57:25.696Z,8.15
2019-01-17T11:00:00.836Z,8.34
2019-01-17T11:02:36.456Z,8.34
2019-01-17T11:05:11.899Z,8.39
2019-01-17T11:07:48.023Z,8.39
2019-01-17T11:10:35.151Z,8.06
2019-01-17T11:13:13.270Z,7.98
2019-01-17T11:15:57.840Z,7.98
2019-01-17T11:18:36.021Z,7.95
2019-01-17T11:21:14.156Z,7.93
2019-01-17T11:23:58.422Z,7.97
2019-01-17T11:26:47.385Z,7.99
2019-01-17T11:29:19.711Z,8.03
2019-01-17T11:32:03.555Z,7.84
2019-01-17T11:34:47.768Z,7.92
2019-01-17T11:37:38.316Z,7.86
2019-01-17T11:40:27.537Z,7.86
2019-01-17T11:43:23.493Z,7.57
2019-01-17T11:45:58.530Z,7.72
2019-01-17T11:48:53.501Z,7.72
2019-01-17T11:51:37.785Z,7.52
2019-01-17T11:54:13.441Z,7.34
2019-01-17T11:56:51.673Z,7.34
2019-01-17T11:59:29.858Z,7.08
2019-01-17T12:02:09.472Z,7.08
2019-01-17T12:04:37.788Z,7.15
2019-01-17T12:07:13.282Z,7.21
2019-01-17T12:09:42.846Z,7.11
2019-01-17T12:12:13.854Z,7.11
2019-01-17T12:14:43.424Z,7.13
2019-01-17T12:17:13.599Z,7.05
2019-01-17T12:19:43.198Z,6.94
2019-01-17T12:22:12.738Z,6.94
2019-01-17T12:24:42.030Z,7.14
2019-01-17T12:27:11.326Z,7.14
2019-01-17T12:29:40.648Z,7.18
2019-01-17T12:32:10.417Z,7.23
2019-01-17T12:34:39.718Z,7.23
2019-01-17T12:37:08.994Z,7.13
2019-01-17T12:39:38.379Z,7.14
2019-01-17T12:42:07.714Z,6.75
2019-01-17T12:44:37.023Z,6.54
2019-01-17T12:47:06.434Z,6.32
2019-01-17T12:49:35.732Z,6.41
2019-01-17T12:52:05.505Z,6.28
2019-01-17T12:54:34.798Z,5.87
2019-01-17T12:57:04.343Z,5.84
2019-01-17T12:59:33.707Z,5.77
2019-01-17T13:02:02.996Z,5.87
2019-01-17T13:04:32.402Z,5.43
2019-01-17T13:07:01.800Z,5.61
2019-01-17T13:09:31.167Z,5.23
2019-01-17T13:12:00.433Z,5.38
2019-01-17T13:14:29.726Z,5.26
2019-01-17T13:16:59.030Z,5.18
2019-01-17T13:19:28.426Z,5.03
2019-01-17T13:21:57.867Z,5.14
2019-01-17T13:24:27.138Z,5.29
2019-01-17T13:27:00.759Z,5.35
2019-01-17T13:29:27.798Z,5.41
2019-01-17T13:31:57.066Z,5.38
2019-01-17T13:34:26.380Z,5.20
2019-01-17T13:36:55.673Z,5.22
2019-01-17T13:39:24.975Z,5.13
2019-01-17T13:41:54.275Z,5.31
2019-01-17T13:44:23.544Z,5.39
2019-01-17T13:46:52.875Z,5.45
2019-01-17T13:49:22.259Z,5.53
2019-01-17T13:51:51.563Z,5.59
2019-01-17T13:54:20.943Z,5.61
2019-01-17T13:56:51.605Z,5.63
2019-01-17T13:59:20.980Z,5.56
2019-01-17T14:01:50.290Z,5.22
2019-01-17T14:04:19.620Z,5.40
2019-01-17T14:06:48.928Z,5.25
2019-01-17T14:09:18.250Z,5.40
2019-01-17T14:11:47.803Z,5.38
2019-01-17T14:14:17.136Z,5.43
2019-01-17T14:16:46.476Z,5.36
2019-01-17T14:19:15.746Z,5.37
2019-01-17T14:21:45.054Z,5.49
2019-01-17T14:24:14.335Z,5.45
2019-01-17T14:26:43.655Z,5.34
2019-01-17T14:29:12.954Z,5.35
2019-01-17T14:31:42.242Z,5.27
2019-01-17T14:34:11.539Z,5.07
2019-01-17T14:36:40.901Z,5.23
2019-01-17T14:39:10.181Z,5.03
2019-01-17T14:41:39.483Z,5.02
2019-01-17T14:44:08.776Z,5.18
2019-01-17T14:46:38.082Z,5.17
2019-01-17T14:49:07.383Z,5.02
2019-01-17T14:51:36.670Z,4.84
2019-01-17T14:54:05.980Z,4.76
2019-01-17T14:56:35.263Z,4.67
2019-01-17T14:59:04.776Z,4.25
2019-01-17T15:01:34.140Z,4.03
2019-01-17T15:04:04.040Z,3.80
2019-01-17T15:06:33.311Z,3.87
2019-01-17T15:09:03.246Z,4.02
2019-01-17T15:11:32.551Z,4.06
2019-01-17T15:14:01.878Z,4.18
2019-01-17T15:16:31.304Z,4.14
2019-01-17T15:19:00.612Z,4.21
2019-01-17T15:21:29.909Z,4.20
2019-01-17T15:23:59.225Z,4.17
2019-01-17T15:26:28.559Z,4.20
2019-01-17T15:28:57.864Z,3.94
2019-01-17T15:31:27.236Z,4.25
2019-01-17T15:33:56.541Z,4.23
2019-01-17T15:36:25.841Z,4.60
2019-01-17T15:38:55.114Z,4.62
2019-01-17T15:41:28.528Z,4.61
2019-01-17T15:43:55.399Z,4.47
2019-01-17T15:46:24.675Z,4.66
2019-01-17T15:48:53.981Z,4.62
2019-01-17T15:51:24.456Z,4.81
2019-01-17T15:53:53.734Z,4.71
2019-01-17T15:56:23.035Z,4.38
2019-01-17T15:58:52.390Z,4.43
2019-01-17T16:01:21.700Z,4.24
2019-01-17T16:03:51.016Z,4.30
2019-01-17T16:06:20.306Z,4.19
2019-01-17T16:08:49.602Z,4.07
2019-01-17T16:11:18.946Z,3.99
2019-01-17T16:13:48.331Z,3.94
2019-01-17T16:16:17.664Z,3.93
2019-01-17T16:18:46.955Z,3.96
2019-01-17T16:21:16.271Z,3.89
2019-01-17T16:23:45.546Z,3.78
2019-01-17T16:26:14.848Z,3.68
2019-01-17T16:28:44.161Z,3.76
2019-01-17T16:31:13.674Z,3.75
2019-01-17T16:33:43.457Z,3.77
2019-01-17T16:36:12.720Z,3.67
2019-01-17T16:38:42.019Z,3.72
2019-01-17T16:41:11.299Z,3.66
2019-01-17T16:43:40.761Z,3.73
2019-01-17T16:46:10.048Z,3.76
2019-01-17T16:48:39.339Z,3.74
2019-01-17T16:51:08.686Z,3.86
2019-01-17T16:53:37.995Z,3.89
2019-01-17T16:56:07.554Z,3.95
2019-01-17T16:58:36.936Z,3.94
2019-01-17T17:01:06.363Z,3.93
2019-01-17T17:03:35.872Z,4.00
2019-01-17T17:06:06.493Z,3.94
2019-01-17T17:08:36.435Z,3.99
2019-01-17T17:11:06.496Z,3.97
2019-01-17T17:13:36.864Z,3.85
2019-01-17T17:16:06.248Z,3.95
2019-01-17T17:18:35.520Z,3.93
2019-01-17T17:21:04.975Z,4.04
2019-01-17T17:23:34.300Z,4.02
2019-01-17T17:26:03.672Z,3.99
2019-01-17T17:28:33.058Z,4.18
2019-01-17T17:31:02.407Z,3.95
2019-01-17T17:33:33.834Z,3.95
2019-01-17T17:36:03.452Z,3.89
2019-01-17T17:38:32.763Z,4.09
2019-01-17T17:41:02.059Z,3.94
2019-01-17T17:43:31.369Z,3.96
2019-01-17T17:46:00.645Z,3.81
2019-01-17T17:48:29.959Z,3.75
2019-01-17T17:51:02.513Z,3.87
2019-01-17T17:53:31.942Z,3.79
2019-01-17T17:56:01.744Z,3.81
2019-01-17T17:58:31.049Z,3.66
2019-01-17T18:01:02.137Z,3.78
2019-01-17T18:03:31.454Z,3.85
2019-01-17T18:06:00.727Z,3.78
2019-01-17T18:08:33.568Z,3.70
2019-01-17T18:11:01.065Z,3.80
2019-01-17T18:13:30.451Z,3.76
2019-01-17T18:15:59.763Z,3.82
2019-01-17T18:18:29.232Z,3.92
2019-01-17T18:20:58.530Z,3.86
2019-01-17T18:23:27.881Z,3.85
2019-01-17T18:25:57.181Z,3.80
2019-01-17T18:28:26.459Z,3.87
2019-01-17T18:30:55.782Z,3.84
2019-01-17T18:33:26.573Z,3.81
2019-01-17T18:35:56.156Z,3.76
2019-01-17T18:38:25.432Z,3.91
2019-01-17T18:40:54.753Z,3.88
2019-01-17T18:43:24.033Z,3.89
2019-01-17T18:45:53.483Z,3.83
2019-01-17T18:48:22.773Z,3.72
2019-01-17T18:50:52.219Z,3.82
2019-01-17T18:53:21.670Z,3.84
2019-01-17T18:55:51.464Z,3.89
2019-01-17T18:58:20.785Z,3.84
2019-01-17T19:00:50.070Z,3.85
2019-01-17T19:03:19.462Z,3.78
2019-01-17T19:05:48.837Z,3.78
2019-01-17T19:08:18.166Z,3.74
2019-01-17T19:10:47.687Z,3.75
2019-01-17T19:13:17.379Z,3.64
2019-01-17T19:15:47.062Z,3.98
2019-01-17T19:18:16.380Z,4.02
2019-01-17T19:20:45.752Z,4.04
2019-01-17T19:23:15.218Z,4.02
2019-01-17T19:25:44.497Z,4.10
2019-01-17T19:28:13.807Z,4.08
2019-01-17T19:30:43.099Z,3.95
2019-01-17T19:33:12.426Z,3.85
2019-01-17T19:35:41.768Z,3.87
2019-01-17T19:38:11.164Z,3.68
2019-01-17T19:40:40.531Z,3.60
2019-01-17T19:43:09.921Z,3.54
2019-01-17T19:45:39.309Z,3.64
2019-01-17T19:48:08.698Z,3.51
2019-01-17T19:50:39.989Z,3.56
2019-01-17T19:53:09.462Z,3.34
2019-01-17T19:55:39.537Z,3.50
2019-01-17T19:58:08.821Z,3.16
2019-01-17T20:00:38.139Z,3.27
2019-01-17T20:03:07.684Z,3.29
2019-01-17T20:05:37.513Z,3.24
2019-01-17T20:08:06.786Z,3.23
2019-01-17T20:10:36.536Z,2.96
2019-01-17T20:13:06.248Z,3.10
2019-01-17T20:15:35.622Z,2.98
2019-01-17T20:18:05.382Z,2.89
2019-01-17T20:20:34.761Z,2.80
2019-01-17T20:23:04.519Z,2.80
2019-01-17T20:25:34.060Z,2.89
2019-01-17T20:28:03.589Z,2.85
2019-01-17T20:30:34.250Z,2.85
2019-01-17T20:33:04.163Z,2.81
2019-01-17T20:35:33.490Z,2.78
2019-01-17T20:38:02.813Z,2.78
2019-01-17T20:40:32.119Z,2.77
2019-01-17T20:43:01.467Z,2.91
2019-01-17T20:45:30.854Z,2.89
2019-01-17T20:48:00.170Z,2.89
2019-01-17T20:50:31.327Z,2.79
2019-01-17T20:53:00.641Z,2.88
2019-01-17T20:55:30.066Z,2.77
2019-01-17T20:58:00.240Z,2.73
2019-01-17T21:00:35.346Z,2.78
2019-01-17T21:03:06.623Z,2.72
2019-01-17T21:05:35.957Z,2.83
2019-01-17T21:08:05.815Z,2.76
2019-01-17T21:10:35.478Z,2.97
2019-01-17T21:13:05.153Z,2.88
2019-01-17T21:15:34.473Z,2.91
2019-01-17T21:18:04.533Z,2.86
2019-01-17T21:20:33.829Z,2.76
2019-01-17T21:23:03.227Z,2.97
2019-01-17T21:25:33.304Z,2.70
2019-01-17T21:28:02.632Z,3.04
2019-01-17T21:30:31.930Z,2.99
2019-01-17T21:33:06.763Z,2.80
2019-01-17T21:35:32.641Z,3.03
2019-01-17T21:38:02.031Z,2.89
2019-01-17T21:40:31.321Z,2.94
2019-01-17T21:43:00.744Z,3.06
2019-01-17T21:45:30.075Z,3.12
2019-01-17T21:47:59.459Z,3.08
2019-01-17T21:50:31.371Z,2.95
2019-01-17T21:53:02.085Z,3.09
2019-01-17T21:55:31.390Z,3.09
2019-01-17T21:58:00.986Z,3.07
2019-01-17T22:00:30.999Z,3.27
2019-01-17T22:03:00.650Z,3.26
2019-01-17T22:05:29.958Z,3.37
2019-01-17T22:07:59.270Z,3.38
2019-01-17T22:10:28.988Z,3.27
2019-01-17T22:12:58.358Z,3.05
2019-01-17T22:15:28.303Z,3.05
2019-01-17T22:17:57.628Z,2.96
2019-01-17T22:20:26.964Z,3.05
2019-01-17T22:22:56.246Z,3.01
2019-01-17T22:25:25.559Z,2.95
2019-01-17T22:27:54.941Z,2.88
2019-01-17T22:30:26.800Z,3.00
2019-01-17T22:32:56.094Z,2.86
2019-01-17T22:35:25.410Z,2.80
2019-01-17T22:37:54.802Z,2.72
2019-01-17T22:40:24.234Z,2.94
2019-01-17T22:42:53.573Z,2.86
2019-01-17T22:45:28.734Z,2.87
2019-01-17T22:47:58.054Z,2.96
2019-01-17T22:50:27.411Z,2.87
2019-01-17T22:52:56.720Z,3.10
2019-01-17T22:55:26.016Z,2.91
2019-01-17T22:57:55.318Z,2.85
2019-01-17T23:00:29.324Z,2.92
2019-01-17T23:02:59.375Z,2.97
2019-01-17T23:05:28.661Z,3.08
2019-01-17T23:07:57.975Z,3.07
2019-01-17T23:10:27.273Z,2.97
2019-01-17T23:12:58.219Z,3.04
2019-01-17T23:15:28.913Z,3.21
2019-01-17T23:17:59.249Z,3.18
2019-01-17T23:20:29.482Z,3.05
2019-01-17T23:22:58.785Z,2.95
2019-01-17T23:25:28.079Z,3.09
2019-01-17T23:27:57.386Z,3.23
2019-01-17T23:30:26.744Z,3.28
2019-01-17T23:32:56.063Z,3.15
2019-01-17T23:35:25.365Z,3.10
2019-01-17T23:37:54.682Z,3.21
2019-01-17T23:40:23.995Z,3.17
2019-01-17T23:42:53.491Z,3.06
2019-01-17T23:45:22.881Z,3.12
2019-01-17T23:47:52.157Z,3.12
2019-01-17T23:50:21.719Z,3.23
2019-01-17T23:52:51.206Z,3.15
2019-01-17T23:55:20.520Z,3.20
2019-01-17T23:57:49.830Z,3.26
